createdAt,value
2022-12-26T00:00:24.848Z,14.52
2022-12-26T00:02:51.542Z,12.50
2022-12-26T00:05:18.190Z,18.20
2022-12-26T00:07:44.769Z,18.38
2022-12-26T00:10:11.385Z,13.98
2022-12-26T00:12:38.014Z,13.30
2022-12-26T00:15:04.894Z,13.48
2022-12-26T00:17:31.568Z,25.92
2022-12-26T00:19:58.239Z,19.10
2022-12-26T00:22:24.888Z,22.55
2022-12-26T00:24:51.584Z,15.55
2022-12-26T00:27:18.223Z,12.77
2022-12-26T00:29:44.856Z,17.00
2022-12-26T00:32:11.471Z,13.52
2022-12-26T00:34:38.431Z,16.92
2022-12-26T00:37:05.066Z,15.85
2022-12-26T00:39:31.645Z,17.55
2022-12-26T00:41:58.325Z,17.63
2022-12-26T00:44:25.888Z,16.87
2022-12-26T00:46:53.415Z,18.15
2022-12-26T00:49:20.117Z,19.63
2022-12-26T00:51:46.838Z,21.00
2022-12-26T00:54:15.787Z,16.00
2022-12-26T00:56:42.392Z,14.48
2022-12-26T00:59:11.274Z,16.15
2022-12-26T01:01:38.075Z,15.65
2022-12-26T01:04:05.316Z,14.93
2022-12-26T01:06:31.998Z,14.43
2022-12-26T01:08:59.722Z,15.50
2022-12-26T01:11:41.677Z,13.90
2022-12-26T01:14:17.068Z,15.43
2022-12-26T01:16:46.483Z,13.52
2022-12-26T01:19:14.105Z,15.90
2022-12-26T01:21:42.987Z,14.57
2022-12-26T01:24:09.849Z,15.07
2022-12-26T01:26:36.709Z,13.48
2022-12-26T01:29:03.355Z,19.02
2022-12-26T01:31:30.084Z,15.85
2022-12-26T01:33:56.725Z,20.38
2022-12-26T01:36:23.350Z,14.95
2022-12-26T01:38:49.962Z,13.27
2022-12-26T01:41:16.758Z,18.00
2022-12-26T01:43:59.309Z,19.20
2022-12-26T01:46:44.005Z,20.75
2022-12-26T01:49:30.085Z,15.73
2022-12-26T01:52:01.967Z,18.08
2022-12-26T01:54:40.647Z,18.33
2022-12-26T01:57:24.025Z,14.65
2022-12-26T01:59:52.561Z,16.30
2022-12-26T02:02:21.721Z,14.65
2022-12-26T02:05:09.469Z,20.95
2022-12-26T02:07:39.439Z,16.77
2022-12-26T02:10:14.359Z,14.60
2022-12-26T02:12:41.322Z,17.85
2022-12-26T02:15:12.245Z,14.50
2022-12-26T02:17:40.332Z,20.02
2022-12-26T02:20:20.867Z,17.35
2022-12-26T02:23:27.569Z,15.15
2022-12-26T02:26:09.719Z,11.98
2022-12-26T02:29:09.484Z,11.00
2022-12-26T02:32:21.186Z,16.33
2022-12-26T02:35:14.055Z,15.35
2022-12-26T02:37:40.626Z,12.05
2022-12-26T02:40:16.428Z,13.05
2022-12-26T02:43:00.109Z,20.23
2022-12-26T02:46:08.366Z,17.45
2022-12-26T02:48:57.740Z,14.32
2022-12-26T02:51:52.001Z,21.40
2022-12-26T02:54:55.962Z,17.98
2022-12-26T02:57:48.740Z,19.92
2022-12-26T03:00:37.678Z,17.77
2022-12-26T03:03:26.564Z,17.75
2022-12-26T03:06:17.276Z,15.52
2022-12-26T03:09:11.118Z,12.90
2022-12-26T03:12:01.620Z,16.13
2022-12-26T03:14:48.550Z,14.43
2022-12-26T03:17:47.527Z,15.10
2022-12-26T03:20:18.338Z,11.93
2022-12-26T03:22:54.267Z,14.43
2022-12-26T03:25:57.416Z,12.80
2022-12-26T03:28:25.131Z,18.08
2022-12-26T03:30:53.432Z,24.30
2022-12-26T03:33:43.867Z,17.02
2022-12-26T03:36:22.681Z,17.23
2022-12-26T03:39:07.643Z,15.68
2022-12-26T03:42:09.776Z,14.70
2022-12-26T03:44:55.213Z,13.48
2022-12-26T03:48:12.902Z,13.10
2022-12-26T03:51:04.332Z,16.02
2022-12-26T03:54:15.819Z,17.85
2022-12-26T03:57:26.336Z,23.58
2022-12-26T04:00:18.603Z,17.20
2022-12-26T04:03:05.987Z,11.93
2022-12-26T04:05:55.892Z,13.43
2022-12-26T04:08:59.672Z,15.55
2022-12-26T04:11:45.612Z,12.32
2022-12-26T04:15:06.792Z,15.60
2022-12-26T04:18:12.398Z,11.65
2022-12-26T04:20:43.776Z,11.25
2022-12-26T04:23:44.649Z,9.43
2022-12-26T04:26:39.455Z,11.13
2022-12-26T04:29:24.682Z,14.40
2022-12-26T04:32:21.908Z,14.50
2022-12-26T04:35:17.178Z,15.00
2022-12-26T04:38:04.642Z,14.02
2022-12-26T04:40:56.127Z,14.20
2022-12-26T04:43:46.727Z,20.30
2022-12-26T04:46:19.165Z,16.02
2022-12-26T04:49:07.805Z,15.52
2022-12-26T04:51:34.965Z,21.58
2022-12-26T04:54:02.057Z,16.98
2022-12-26T04:56:28.666Z,13.38
2022-12-26T04:58:55.594Z,17.35
2022-12-26T05:01:40.910Z,18.98
2022-12-26T05:04:32.216Z,17.73
2022-12-26T05:07:18.865Z,19.65
2022-12-26T05:09:47.181Z,19.17
2022-12-26T05:12:13.852Z,15.10
2022-12-26T05:14:40.475Z,25.15
2022-12-26T05:17:26.095Z,16.45
2022-12-26T05:20:11.454Z,12.98
2022-12-26T05:22:59.287Z,17.67
2022-12-26T05:26:03.856Z,14.32
2022-12-26T05:28:42.668Z,16.10
2022-12-26T05:31:15.503Z,15.35
2022-12-26T05:34:01.373Z,16.88
2022-12-26T05:36:31.967Z,16.35
2022-12-26T05:38:58.628Z,13.88
2022-12-26T05:41:25.422Z,13.23
2022-12-26T05:43:52.125Z,15.25
2022-12-26T05:46:18.851Z,15.43
2022-12-26T05:48:45.462Z,13.00
2022-12-26T05:51:12.480Z,15.10
2022-12-26T05:53:39.099Z,14.20
2022-12-26T05:56:14.786Z,12.93
2022-12-26T05:58:41.949Z,18.05
2022-12-26T06:01:18.373Z,16.17
2022-12-26T06:03:50.853Z,15.15
2022-12-26T06:06:18.390Z,16.55
2022-12-26T06:08:48.556Z,15.40
2022-12-26T06:11:16.190Z,14.65
2022-12-26T06:13:42.902Z,15.30
2022-12-26T06:16:13.038Z,12.75
2022-12-26T06:18:40.557Z,14.35
2022-12-26T06:21:11.828Z,14.38
2022-12-26T06:23:39.008Z,14.63
2022-12-26T06:26:07.174Z,16.50
2022-12-26T06:28:34.192Z,13.20
2022-12-26T06:31:20.614Z,14.82
2022-12-26T06:33:52.332Z,13.10
2022-12-26T06:36:21.690Z,13.25
2022-12-26T06:38:48.819Z,13.77
2022-12-26T06:41:18.252Z,14.63
2022-12-26T06:43:45.582Z,16.35
2022-12-26T06:46:14.685Z,12.98
2022-12-26T06:48:41.293Z,17.50
2022-12-26T06:51:16.939Z,13.13
2022-12-26T06:53:43.777Z,10.35
2022-12-26T06:56:19.194Z,12.60
2022-12-26T06:58:46.265Z,15.93
2022-12-26T07:01:18.136Z,13.00
2022-12-26T07:03:51.231Z,17.73
2022-12-26T07:06:20.624Z,12.13
2022-12-26T07:08:47.825Z,12.90
2022-12-26T07:11:23.683Z,16.77
2022-12-26T07:13:50.336Z,13.20
2022-12-26T07:16:17.092Z,16.75
2022-12-26T07:18:43.865Z,17.10
2022-12-26T07:21:13.745Z,15.27
2022-12-26T07:23:40.753Z,12.32
2022-12-26T07:26:08.403Z,14.35
2022-12-26T07:28:35.413Z,18.50
2022-12-26T07:31:02.469Z,15.57
2022-12-26T07:33:29.718Z,14.10
2022-12-26T07:36:03.995Z,12.88
2022-12-26T07:38:30.877Z,16.55
2022-12-26T07:40:58.230Z,14.10
2022-12-26T07:43:25.933Z,16.95
2022-12-26T07:45:52.815Z,15.02
2022-12-26T07:48:19.605Z,15.25
2022-12-26T07:50:47.430Z,14.00
2022-12-26T07:53:15.137Z,13.48
2022-12-26T07:55:41.881Z,19.93
2022-12-26T07:58:08.557Z,23.42
2022-12-26T08:00:35.224Z,16.65
2022-12-26T08:03:07.394Z,14.98
2022-12-26T08:05:34.905Z,21.15
2022-12-26T08:08:01.492Z,18.85
2022-12-26T08:10:28.100Z,14.63
2022-12-26T08:12:54.776Z,15.32
2022-12-26T08:15:21.452Z,15.73
2022-12-26T08:17:48.048Z,15.65
2022-12-26T08:20:14.788Z,13.82
2022-12-26T08:22:41.482Z,13.07
2022-12-26T08:25:08.828Z,17.73
2022-12-26T08:27:35.502Z,18.55
2022-12-26T08:30:03.557Z,17.95
2022-12-26T08:32:30.508Z,20.80
2022-12-26T08:34:57.109Z,16.83
2022-12-26T08:37:26.591Z,13.02
2022-12-26T08:39:53.624Z,17.58
2022-12-26T08:42:23.259Z,15.02
2022-12-26T08:44:49.936Z,15.63
2022-12-26T08:47:16.574Z,16.73
2022-12-26T08:49:43.668Z,17.58
2022-12-26T08:52:10.333Z,17.17
2022-12-26T08:54:37.831Z,16.90
2022-12-26T08:57:04.570Z,11.50
2022-12-26T08:59:31.254Z,18.05
2022-12-26T09:01:58.175Z,20.63
2022-12-26T09:04:24.896Z,16.55
2022-12-26T09:06:51.575Z,21.20
2022-12-26T09:09:18.279Z,13.63
2022-12-26T09:11:44.967Z,13.23
2022-12-26T09:14:12.270Z,15.25
2022-12-26T09:16:49.589Z,16.88
2022-12-26T09:19:18.514Z,15.30
2022-12-26T09:21:45.927Z,18.48
2022-12-26T09:24:15.526Z,14.63
2022-12-26T09:26:43.166Z,20.92
2022-12-26T09:29:11.696Z,16.57
2022-12-26T09:34:06.618Z,21.35
2022-12-26T09:36:38.141Z,13.00
2022-12-26T09:39:07.509Z,12.65
2022-12-26T09:41:55.991Z,17.45
2022-12-26T09:44:36.618Z,17.02
2022-12-26T09:47:21.918Z,11.40
2022-12-26T09:50:09.757Z,13.38
2022-12-26T09:53:02.903Z,10.88
2022-12-26T09:55:37.876Z,13.68
2022-12-26T09:58:13.271Z,12.27
2022-12-26T10:00:50.945Z,13.93
2022-12-26T10:03:17.662Z,14.75
2022-12-26T10:06:01.133Z,14.30
2022-12-26T10:08:43.458Z,14.35
2022-12-26T10:11:46.436Z,18.17
2022-12-26T10:14:22.172Z,14.68
2022-12-26T10:17:03.204Z,13.35
2022-12-26T10:19:48.264Z,17.42
2022-12-26T10:22:24.363Z,16.60
2022-12-26T10:24:52.647Z,15.32
2022-12-26T10:27:21.047Z,13.50
2022-12-26T10:30:05.307Z,15.65
2022-12-26T10:32:41.643Z,15.02
2022-12-26T10:35:35.723Z,13.95
2022-12-26T10:38:11.514Z,12.18
2022-12-26T10:40:42.335Z,10.80
2022-12-26T10:43:28.653Z,12.48
2022-12-26T10:45:58.264Z,11.00
2022-12-26T10:48:28.227Z,15.70
2022-12-26T10:50:55.540Z,16.00
2022-12-26T10:53:23.227Z,15.50
2022-12-26T10:55:49.906Z,14.65
2022-12-26T10:58:21.482Z,14.20
2022-12-26T11:00:48.769Z,15.02
2022-12-26T11:03:18.371Z,13.65
2022-12-26T11:06:18.362Z,12.90
2022-12-26T11:08:51.839Z,16.08
2022-12-26T11:11:18.397Z,20.73
2022-12-26T11:14:00.967Z,16.63
2022-12-26T11:16:34.941Z,11.05
2022-12-26T11:19:02.032Z,12.52
2022-12-26T11:21:30.568Z,15.77
2022-12-26T11:24:09.167Z,18.27
2022-12-26T11:26:37.560Z,16.10
2022-12-26T11:29:12.225Z,18.90
2022-12-26T11:31:49.817Z,16.15
2022-12-26T11:34:20.713Z,16.00
2022-12-26T11:36:50.946Z,17.30
2022-12-26T11:39:27.365Z,14.65
2022-12-26T11:41:55.033Z,14.45
2022-12-26T11:44:32.341Z,15.45
2022-12-26T11:47:17.174Z,15.80
2022-12-26T11:50:05.536Z,14.52
2022-12-26T11:52:39.251Z,13.60
2022-12-26T11:55:24.518Z,16.30
2022-12-26T11:58:09.498Z,18.90
2022-12-26T12:00:38.952Z,15.85
2022-12-26T12:03:15.486Z,16.90
2022-12-26T12:06:14.015Z,16.40
2022-12-26T12:09:02.234Z,21.73
2022-12-26T12:11:56.688Z,16.77
2022-12-26T12:14:42.132Z,18.42
2022-12-26T12:17:19.902Z,15.93
2022-12-26T12:20:13.207Z,16.52
2022-12-26T12:22:45.768Z,15.70
2022-12-26T12:25:33.355Z,17.65
2022-12-26T12:28:02.640Z,22.88
2022-12-26T12:31:07.751Z,18.25
2022-12-26T12:33:44.555Z,19.48
2022-12-26T12:36:46.730Z,15.80
2022-12-26T12:39:20.986Z,16.55
2022-12-26T12:42:20.395Z,17.58
2022-12-26T12:45:02.213Z,22.58
2022-12-26T12:48:10.241Z,28.08
2022-12-26T12:53:06.270Z,22.02
2022-12-26T12:55:57.539Z,20.00
2022-12-26T12:58:41.849Z,15.60
2022-12-26T13:01:18.933Z,16.60
2022-12-26T13:03:53.469Z,15.80
2022-12-26T13:06:30.704Z,14.35
2022-12-26T13:09:03.210Z,16.30
2022-12-26T13:11:38.355Z,17.65
2022-12-26T13:14:17.216Z,19.00
2022-12-26T13:16:50.050Z,24.63
2022-12-26T13:19:22.161Z,20.60
2022-12-26T13:21:51.922Z,21.67
2022-12-26T13:24:43.539Z,18.80
2022-12-26T13:27:14.426Z,18.60
2022-12-26T13:29:45.166Z,15.55
2022-12-26T13:32:25.067Z,15.52
2022-12-26T13:34:54.665Z,17.17
2022-12-26T13:37:39.642Z,20.30
2022-12-26T13:40:12.068Z,16.80
2022-12-26T13:43:02.691Z,19.50
2022-12-26T13:45:35.426Z,20.05
2022-12-26T13:48:17.139Z,19.10
2022-12-26T13:51:04.894Z,19.92
2022-12-26T13:53:37.153Z,22.63
2022-12-26T13:56:36.233Z,17.10
2022-12-26T13:59:08.279Z,22.02
2022-12-26T14:01:55.982Z,19.88
2022-12-26T14:04:54.357Z,16.70
2022-12-26T14:07:23.927Z,18.80
2022-12-26T14:10:05.552Z,21.05
2022-12-26T14:13:02.486Z,18.05
2022-12-26T14:15:52.029Z,23.17
2022-12-26T14:18:24.588Z,20.13
2022-12-26T14:20:53.963Z,18.50
2022-12-26T14:23:29.843Z,14.18
2022-12-26T14:26:08.869Z,14.88
2022-12-26T14:29:41.209Z,18.35
2022-12-26T14:32:37.056Z,15.88
2022-12-26T14:35:37.707Z,18.65
2022-12-26T14:38:46.822Z,33.78
2022-12-26T14:41:35.331Z,45.08
2022-12-26T14:44:23.700Z,48.15
2022-12-26T14:47:15.744Z,27.60
2022-12-26T14:49:42.915Z,39.30
2022-12-26T14:56:10.184Z,26.10
2022-12-26T14:58:50.110Z,19.25
2022-12-26T15:01:41.199Z,20.77
2022-12-26T15:04:10.454Z,18.80
2022-12-26T15:07:01.764Z,18.27
2022-12-26T15:10:06.220Z,21.13
2022-12-26T15:13:32.061Z,35.13
2022-12-26T15:16:39.076Z,23.15
2022-12-26T15:19:21.485Z,20.73
2022-12-26T15:22:03.914Z,22.52
2022-12-26T15:28:00.200Z,17.23
2022-12-26T15:33:04.353Z,16.98
2022-12-26T15:35:46.037Z,20.23
2022-12-26T15:38:26.357Z,19.85
2022-12-26T15:41:10.497Z,27.10
2022-12-26T15:43:37.023Z,19.90
2022-12-26T15:46:43.184Z,19.38
2022-12-26T15:49:18.972Z,20.88
2022-12-26T15:52:04.310Z,22.83
2022-12-26T15:54:34.100Z,18.00
2022-12-26T15:57:18.186Z,18.27
2022-12-26T16:00:03.856Z,22.83
2022-12-26T16:02:56.507Z,23.02
2022-12-26T16:05:52.571Z,19.27
2022-12-26T16:08:24.972Z,16.15
2022-12-26T16:11:25.000Z,12.63
2022-12-26T16:17:13.593Z,13.90
2022-12-26T16:27:58.386Z,10.70
2022-12-26T16:30:28.620Z,13.27
2022-12-26T16:32:55.836Z,10.43
2022-12-26T16:35:36.481Z,10.85
2022-12-26T16:42:29.700Z,9.77
2022-12-26T16:45:05.867Z,7.60
2022-12-26T16:55:42.590Z,8.57
2022-12-26T16:58:14.956Z,9.82
2022-12-26T17:05:24.397Z,9.65
2022-12-26T17:07:52.687Z,9.63
2022-12-26T17:10:26.581Z,11.50
2022-12-26T17:12:56.126Z,10.18
2022-12-26T17:15:29.853Z,10.30
2022-12-26T17:18:20.241Z,12.95
2022-12-26T17:20:46.947Z,12.18
2022-12-26T17:23:37.093Z,15.23
2022-12-26T17:26:31.678Z,8.35
2022-12-26T17:28:58.552Z,13.23
2022-12-26T17:31:53.718Z,8.25
2022-12-26T17:34:25.072Z,8.00
2022-12-26T17:37:20.478Z,9.20
2022-12-26T17:40:53.680Z,11.57
2022-12-26T17:43:24.545Z,13.38
2022-12-26T17:46:31.103Z,11.20
2022-12-26T17:48:59.338Z,8.93
2022-12-26T17:51:30.380Z,10.60
2022-12-26T17:53:57.257Z,13.93
2022-12-26T17:56:27.130Z,13.25
2022-12-26T17:58:55.547Z,11.77
2022-12-26T18:01:22.545Z,13.25
2022-12-26T18:03:52.005Z,13.77
2022-12-26T18:06:19.564Z,12.13
2022-12-26T18:08:46.288Z,11.30
2022-12-26T18:11:15.001Z,11.43
2022-12-26T18:13:49.045Z,9.80
2022-12-26T18:16:19.820Z,9.88
2022-12-26T18:18:48.203Z,10.25
2022-12-26T18:21:16.541Z,8.70
2022-12-26T18:23:43.533Z,8.55
2022-12-26T18:26:27.365Z,6.75
2022-12-26T18:32:35.453Z,8.60
2022-12-26T18:35:02.093Z,8.35
2022-12-26T18:37:29.921Z,6.43
2022-12-26T18:39:59.738Z,6.95
2022-12-26T18:42:27.259Z,11.30
2022-12-26T18:44:54.581Z,7.27
2022-12-26T18:52:44.366Z,6.72
2022-12-26T18:55:23.748Z,7.97
2022-12-26T18:57:50.704Z,6.90
2022-12-26T19:00:18.018Z,6.18
2022-12-26T19:03:39.305Z,6.65
2022-12-26T19:06:16.342Z,6.38
2022-12-26T19:11:53.009Z,5.72
2022-12-26T19:14:22.523Z,7.72
2022-12-26T19:16:49.141Z,5.60
2022-12-26T19:26:09.348Z,5.78
2022-12-26T19:28:35.946Z,5.18
2022-12-26T19:31:14.451Z,10.35
2022-12-26T19:33:41.356Z,9.45
2022-12-26T19:36:08.996Z,5.30
2022-12-26T19:38:35.653Z,9.38
2022-12-26T19:41:09.425Z,8.15
2022-12-26T19:43:36.705Z,6.65
2022-12-26T19:46:15.547Z,6.32
2022-12-26T19:48:43.546Z,4.47
2022-12-26T19:51:12.823Z,9.85
2022-12-26T19:53:40.268Z,5.22
2022-12-26T19:56:12.511Z,7.45
2022-12-26T19:58:39.173Z,4.40
2022-12-26T20:01:11.099Z,7.50
2022-12-26T20:03:39.198Z,4.90
2022-12-26T20:06:10.694Z,5.68
2022-12-26T20:08:37.494Z,5.50
2022-12-26T20:11:06.459Z,4.88
2022-12-26T20:13:35.087Z,5.05
2022-12-26T20:16:06.403Z,9.98
2022-12-26T20:18:34.813Z,4.15
2022-12-26T20:23:28.752Z,6.18
2022-12-26T20:25:58.715Z,5.55
2022-12-26T20:28:25.424Z,5.55
2022-12-26T20:31:07.936Z,4.40
2022-12-26T20:33:39.688Z,4.40
2022-12-26T20:36:15.136Z,6.18
2022-12-26T20:38:42.723Z,4.13
2022-12-26T20:41:09.986Z,3.90
2022-12-26T20:43:37.017Z,4.95
2022-12-26T20:46:08.076Z,6.00
2022-12-26T20:48:35.447Z,4.97
2022-12-26T20:51:05.926Z,5.82
2022-12-26T20:53:33.261Z,6.40
2022-12-26T20:56:00.713Z,3.22
2022-12-26T20:58:30.036Z,4.03
2022-12-26T21:01:00.301Z,3.75
2022-12-26T21:03:27.862Z,2.40
2022-12-26T21:05:55.371Z,1.53
2022-12-26T21:08:22.062Z,2.13
2022-12-26T21:10:48.727Z,2.28
2022-12-26T21:13:15.437Z,4.68
2022-12-26T21:15:54.330Z,1.33
2022-12-26T21:18:21.037Z,0.75
2022-12-26T21:20:47.617Z,1.80
2022-12-26T21:23:14.522Z,0.95
2022-12-26T21:25:41.140Z,1.52
2022-12-26T21:28:07.761Z,4.25
2022-12-26T22:04:23.471Z,2.03
2022-12-26T22:43:56.627Z,2.40
2022-12-26T22:46:30.603Z,3.15
2022-12-26T22:54:50.374Z,3.88
2022-12-26T23:00:52.098Z,4.60
2022-12-26T23:03:20.063Z,1.58
2022-12-26T23:05:47.755Z,2.28
2022-12-26T23:15:24.822Z,2.35
2022-12-26T23:31:16.358Z,2.05
2022-12-26T23:42:38.217Z,2.30
2022-12-26T23:50:36.555Z,1.65
